Time;durP1;ratioP1;P1;durP2;ratioP2;P2;SDS_P1;SDS_P2;PMS_P1;PMS_P2;Temp;Humidity;BMP_temperature;BMP_pressure;BME280_temperature;BME280_humidity;BME280_pressure;Samples;Min_cycle;Max_cycle;Signal;HPM_P1;HPM_P2
2023/12/28 00:00:15;;;;;;;5.80;1.30;;;9.10;99.90;;;;;;5120667;28;20176;-80
2023/12/28 00:02:40;;;;;;;3.87;1.50;;;9.00;99.90;;;;;;5120897;28;20197;-79
2023/12/28 00:05:06;;;;;;;2.07;1.33;;;9.00;99.90;;;;;;5121834;28;20583;-80
2023/12/28 00:07:32;;;;;;;3.23;1.73;;;9.00;99.90;;;;;;5121776;28;20535;-80
2023/12/28 00:09:57;;;;;;;2.87;1.60;;;9.00;99.90;;;;;;5120432;28;20209;-80
2023/12/28 00:12:23;;;;;;;6.93;2.30;;;9.00;99.90;;;;;;5119126;28;20712;-80
2023/12/28 00:14:48;;;;;;;4.33;1.70;;;9.00;99.90;;;;;;5119691;28;20261;-80
2023/12/28 00:17:14;;;;;;;2.87;1.67;;;9.00;99.90;;;;;;5120002;28;20174;-80
2023/12/28 00:19:40;;;;;;;2.23;1.70;;;9.00;99.90;;;;;;5118893;28;20173;-79
2023/12/28 00:22:05;;;;;;;4.20;1.43;;;8.90;99.90;;;;;;5117474;28;20582;-80
2023/12/28 00:24:31;;;;;;;2.77;1.40;;;8.90;99.90;;;;;;5118106;28;20278;-79
2023/12/28 00:26:56;;;;;;;3.03;1.67;;;8.90;99.90;;;;;;5117762;28;20197;-80
2023/12/28 00:29:22;;;;;;;2.33;1.60;;;9.00;99.90;;;;;;5118280;28;20288;-79
2023/12/28 00:31:47;;;;;;;3.60;1.80;;;9.00;99.90;;;;;;5120043;28;20205;-79
2023/12/28 00:34:13;;;;;;;4.50;1.80;;;9.10;99.90;;;;;;5120456;28;20158;-79
2023/12/28 00:36:38;;;;;;;2.13;1.47;;;9.00;99.90;;;;;;5118365;28;20193;-79
2023/12/28 00:39:04;;;;;;;1.87;1.30;;;9.00;99.90;;;;;;5119760;28;20194;-80
2023/12/28 00:41:29;;;;;;;2.07;1.50;;;8.90;99.90;;;;;;5119072;28;20190;-79
2023/12/28 00:43:55;;;;;;;4.90;1.57;;;9.10;99.90;;;;;;5117959;28;20233;-79
2023/12/28 00:46:20;;;;;;;1.90;1.43;;;9.20;99.90;;;;;;5120163;28;20277;-79
2023/12/28 00:48:46;;;;;;;2.83;1.33;;;9.20;99.90;;;;;;5119825;28;20192;-79
2023/12/28 00:51:11;;;;;;;3.13;1.60;;;9.20;99.90;;;;;;5119823;28;20176;-79
2023/12/28 00:53:37;;;;;;;2.17;1.30;;;9.20;99.90;;;;;;5119817;28;20325;-78
2023/12/28 00:56:03;;;;;;;2.97;1.57;;;9.20;99.90;;;;;;5118350;28;20677;-79
2023/12/28 00:58:28;;;;;;;3.03;1.43;;;9.20;99.90;;;;;;5117095;28;20233;-79
2023/12/28 01:00:56;;;;;;;2.87;1.57;;;9.20;99.90;;;;;;5118947;28;20170;-79
2023/12/28 01:03:22;;;;;;;1.67;1.40;;;9.20;99.90;;;;;;5118100;28;20704;-79
2023/12/28 01:05:50;;;;;;;2.60;1.60;;;9.20;99.90;;;;;;5120127;28;20186;-79
2023/12/28 01:08:17;;;;;;;2.57;1.67;;;9.20;99.90;;;;;;5118885;28;20188;-80
2023/12/28 01:10:42;;;;;;;3.13;1.60;;;9.20;99.90;;;;;;5118773;28;20177;-80
2023/12/28 01:13:08;;;;;;;3.27;1.60;;;9.20;99.90;;;;;;5117221;28;20197;-80
2023/12/28 01:15:33;;;;;;;1.83;1.40;;;9.20;99.90;;;;;;5117894;28;20200;-80
2023/12/28 01:17:59;;;;;;;1.90;1.60;;;9.20;99.90;;;;;;5118429;28;20181;-79
2023/12/28 01:20:24;;;;;;;2.40;1.67;;;9.20;99.90;;;;;;5116288;28;20539;-78
2023/12/28 01:22:50;;;;;;;3.67;1.50;;;9.20;99.90;;;;;;5115100;28;20665;-78
2023/12/28 01:25:16;;;;;;;2.50;1.73;;;9.20;99.90;;;;;;5114421;28;20211;-80
2023/12/28 01:27:41;;;;;;;2.13;1.67;;;9.20;99.90;;;;;;5116306;28;20170;-79
2023/12/28 01:30:07;;;;;;;3.03;2.00;;;9.30;99.90;;;;;;5117477;28;20279;-80
2023/12/28 01:32:33;;;;;;;2.43;1.70;;;9.20;99.90;;;;;;5116260;28;20209;-79
2023/12/28 01:34:58;;;;;;;3.63;1.77;;;9.20;99.90;;;;;;5117133;28;20177;-79
2023/12/28 01:37:24;;;;;;;2.57;1.60;;;9.20;99.90;;;;;;5118185;28;20195;-78
2023/12/28 01:39:50;;;;;;;4.40;1.77;;;9.20;99.90;;;;;;5118415;28;20543;-79
2023/12/28 01:42:16;;;;;;;2.20;1.50;;;9.20;99.90;;;;;;5118197;28;20264;-79
2023/12/28 01:44:42;;;;;;;3.50;1.50;;;9.20;99.90;;;;;;5116669;28;20173;-79
2023/12/28 01:47:07;;;;;;;2.03;1.37;;;9.20;99.90;;;;;;5119076;28;20177;-80
2023/12/28 01:49:35;;;;;;;6.80;2.03;;;9.30;99.90;;;;;;5117201;28;20169;-79
2023/12/28 01:52:02;;;;;;;5.43;1.87;;;9.30;99.90;;;;;;5117916;28;20201;-79
2023/12/28 01:54:28;;;;;;;2.67;1.30;;;9.30;99.90;;;;;;5117873;28;20265;-79
2023/12/28 01:56:54;;;;;;;3.57;1.67;;;9.30;99.90;;;;;;5117408;28;20204;-78
2023/12/28 01:59:20;;;;;;;3.70;1.73;;;9.30;99.90;;;;;;5117830;28;20177;-79
2023/12/28 02:01:46;;;;;;;2.97;1.60;;;9.30;99.90;;;;;;5118206;28;20203;-79
2023/12/28 02:04:12;;;;;;;8.40;1.80;;;9.30;99.90;;;;;;5118837;28;20225;-80
2023/12/28 02:06:38;;;;;;;5.13;2.20;;;9.30;99.90;;;;;;5118890;28;20237;-80
2023/12/28 02:09:03;;;;;;;4.43;1.70;;;9.30;99.90;;;;;;5118021;28;20255;-79
2023/12/28 02:11:29;;;;;;;2.47;1.50;;;9.30;99.90;;;;;;5118725;28;20201;-79
2023/12/28 02:13:54;;;;;;;4.40;1.63;;;9.30;99.90;;;;;;5119067;28;20552;-79
2023/12/28 02:16:26;;;;;;;2.60;1.60;;;9.30;99.90;;;;;;5117905;28;20209;-79
2023/12/28 02:18:56;;;;;;;4.73;2.20;;;9.40;99.90;;;;;;5118810;28;20157;-80
2023/12/28 02:21:22;;;;;;;3.17;1.37;;;9.40;99.90;;;;;;5119179;28;20592;-80
2023/12/28 02:23:49;;;;;;;2.20;1.60;;;9.30;99.90;;;;;;5119723;28;20594;-80
2023/12/28 02:26:15;;;;;;;2.67;1.70;;;9.30;99.90;;;;;;5120103;28;20706;-80
2023/12/28 02:28:41;;;;;;;2.30;1.80;;;9.40;99.90;;;;;;5119718;28;20185;-80
2023/12/28 02:31:10;;;;;;;2.50;1.60;;;9.30;99.90;;;;;;5119532;28;20184;-80
2023/12/28 02:33:43;;;;;;;2.90;1.60;;;9.30;99.90;;;;;;5118393;28;20193;-80
2023/12/28 02:36:11;;;;;;;6.77;1.97;;;9.30;99.90;;;;;;5119272;28;20217;-80
2023/12/28 02:38:38;;;;;;;2.07;1.70;;;9.30;99.90;;;;;;5119066;28;20174;-78
2023/12/28 02:41:05;;;;;;;2.10;1.50;;;9.30;99.90;;;;;;5116697;28;20170;-79
2023/12/28 02:43:31;;;;;;;3.10;1.80;;;9.30;99.90;;;;;;5118607;28;20503;-79
2023/12/28 02:45:57;;;;;;;3.93;1.70;;;9.30;99.90;;;;;;5118987;28;20177;-79
2023/12/28 02:48:22;;;;;;;3.07;1.93;;;9.30;99.90;;;;;;5116920;28;20182;-79
2023/12/28 02:50:48;;;;;;;3.60;1.60;;;9.30;99.90;;;;;;5117768;28;20244;-80
2023/12/28 02:53:13;;;;;;;3.33;2.00;;;9.30;99.90;;;;;;5117425;28;20194;-80
2023/12/28 02:55:39;;;;;;;4.43;1.70;;;9.30;99.90;;;;;;5117289;28;20209;-80
2023/12/28 02:58:05;;;;;;;5.23;1.70;;;9.30;99.90;;;;;;5117460;28;20212;-80
2023/12/28 03:00:30;;;;;;;5.97;1.93;;;9.30;99.90;;;;;;5118734;28;20166;-80
2023/12/28 03:02:56;;;;;;;3.67;1.93;;;9.30;99.90;;;;;;5113422;28;20201;-77
2023/12/28 03:05:22;;;;;;;1.73;1.50;;;9.30;99.90;;;;;;5116053;28;20180;-79
2023/12/28 03:07:47;;;;;;;3.97;2.07;;;9.30;99.90;;;;;;5114304;28;20177;-80
2023/12/28 03:10:13;;;;;;;3.83;1.90;;;9.30;99.90;;;;;;5113570;28;20186;-80
2023/12/28 03:12:38;;;;;;;2.30;1.80;;;9.30;99.90;;;;;;5118121;28;20189;-79
2023/12/28 03:15:05;;;;;;;4.10;2.10;;;9.30;99.90;;;;;;5116340;28;20174;-79
2023/12/28 03:17:32;;;;;;;6.30;1.90;;;9.40;99.90;;;;;;5115082;28;20218;-79
2023/12/28 03:19:59;;;;;;;4.60;1.90;;;9.40;99.90;;;;;;5115521;28;20271;-79
2023/12/28 03:22:24;;;;;;;7.37;2.10;;;9.40;99.90;;;;;;5117065;28;20274;-79
2023/12/28 03:24:50;;;;;;;3.40;1.77;;;9.40;99.90;;;;;;5121065;28;20181;-80
2023/12/28 03:27:15;;;;;;;5.10;2.30;;;9.40;99.90;;;;;;5119888;28;20181;-79
2023/12/28 03:29:42;;;;;;;2.30;1.90;;;9.40;99.90;;;;;;5119681;28;20165;-80
2023/12/28 03:32:08;;;;;;;4.47;1.70;;;9.50;99.90;;;;;;5119023;28;20205;-79
2023/12/28 03:34:34;;;;;;;2.83;1.87;;;9.40;99.90;;;;;;5102502;28;20642;-79
2023/12/28 03:36:59;;;;;;;9.80;2.33;;;9.50;99.90;;;;;;5098938;28;20202;-79
2023/12/28 03:39:25;;;;;;;1.90;1.70;;;9.50;99.90;;;;;;5098862;28;20162;-79
2023/12/28 03:41:52;;;;;;;3.73;1.73;;;9.60;99.90;;;;;;5098503;28;20186;-80
2023/12/28 03:44:18;;;;;;;4.07;2.10;;;9.50;99.90;;;;;;5099110;28;20193;-79
2023/12/28 03:46:43;;;;;;;2.80;1.80;;;9.50;99.90;;;;;;5097046;28;20186;-78
2023/12/28 03:49:09;;;;;;;3.83;1.80;;;9.50;99.90;;;;;;5098087;28;20223;-80
2023/12/28 03:51:35;;;;;;;3.33;1.70;;;9.50;99.90;;;;;;5098497;28;20190;-80
2023/12/28 03:54:00;;;;;;;3.97;2.10;;;9.60;99.90;;;;;;5098792;28;20247;-79
2023/12/28 03:56:27;;;;;;;3.17;2.03;;;9.60;99.90;;;;;;5100251;28;20198;-79
2023/12/28 03:58:53;;;;;;;3.80;1.97;;;9.50;99.90;;;;;;5097917;28;20178;-79
2023/12/28 04:01:22;;;;;;;3.10;1.60;;;9.50;99.90;;;;;;5097139;28;20201;-80
2023/12/28 04:03:48;;;;;;;3.37;1.70;;;9.50;99.90;;;;;;5097958;28;20174;-80
2023/12/28 04:06:14;;;;;;;3.87;1.90;;;9.50;99.90;;;;;;5097655;28;20174;-80
2023/12/28 04:08:41;;;;;;;5.10;1.80;;;9.50;99.90;;;;;;5099718;28;20178;-78
2023/12/28 04:11:07;;;;;;;3.77;1.90;;;9.50;99.90;;;;;;5099030;28;20193;-79
2023/12/28 04:13:32;;;;;;;4.60;1.80;;;9.50;99.90;;;;;;5097478;28;20182;-79
2023/12/28 04:15:58;;;;;;;4.77;2.30;;;9.50;99.90;;;;;;5098892;28;20202;-79
2023/12/28 04:18:23;;;;;;;3.23;1.87;;;9.60;99.90;;;;;;5096554;28;20200;-80
2023/12/28 04:20:49;;;;;;;3.97;1.97;;;9.60;99.90;;;;;;5099299;28;20230;-80
2023/12/28 04:23:15;;;;;;;4.43;1.80;;;9.50;99.90;;;;;;5098789;28;20197;-79
2023/12/28 04:25:41;;;;;;;2.03;1.60;;;9.50;99.90;;;;;;5099961;28;20610;-80
2023/12/28 04:28:07;;;;;;;3.30;1.80;;;9.60;99.90;;;;;;5099014;28;20260;-80
2023/12/28 04:30:33;;;;;;;5.30;1.67;;;9.60;99.90;;;;;;5097876;28;20174;-78
2023/12/28 04:32:58;;;;;;;4.37;1.83;;;9.50;99.90;;;;;;5096689;28;20265;-80
2023/12/28 04:35:24;;;;;;;5.13;1.73;;;9.60;99.90;;;;;;5098645;28;20206;-80
2023/12/28 04:37:49;;;;;;;4.33;1.90;;;9.60;99.90;;;;;;5098780;28;20178;-79
2023/12/28 04:40:15;;;;;;;4.27;1.90;;;9.60;99.90;;;;;;5096661;28;20241;-80
2023/12/28 04:42:41;;;;;;;6.57;1.97;;;9.60;99.90;;;;;;5096863;28;20236;-80
2023/12/28 04:45:07;;;;;;;4.67;2.13;;;9.60;99.90;;;;;;5098001;28;20174;-80
2023/12/28 04:47:32;;;;;;;3.03;2.07;;;9.60;99.90;;;;;;5097846;28;20178;-80
2023/12/28 04:49:58;;;;;;;3.23;1.80;;;9.70;99.90;;;;;;5095302;28;20173;-80
2023/12/28 04:52:23;;;;;;;3.07;1.70;;;9.70;99.90;;;;;;5096868;28;20198;-79
2023/12/28 04:54:49;;;;;;;3.20;1.83;;;9.60;99.90;;;;;;5098549;28;20258;-80
2023/12/28 04:57:14;;;;;;;5.30;2.10;;;9.70;99.90;;;;;;5096938;28;20274;-79
2023/12/28 04:59:40;;;;;;;3.37;1.70;;;9.70;99.90;;;;;;5097294;28;20180;-80
2023/12/28 05:02:06;;;;;;;4.13;1.90;;;9.70;99.90;;;;;;5099191;28;20217;-79
2023/12/28 05:04:32;;;;;;;3.40;1.40;;;9.60;99.90;;;;;;5099358;28;20170;-80
2023/12/28 05:06:57;;;;;;;5.17;1.63;;;9.70;99.90;;;;;;5095569;28;20189;-80
2023/12/28 05:09:23;;;;;;;5.17;1.80;;;9.70;99.90;;;;;;5096646;28;20174;-80
2023/12/28 05:11:48;;;;;;;2.93;2.13;;;9.70;99.90;;;;;;5098301;28;20204;-80
2023/12/28 05:14:14;;;;;;;4.50;1.80;;;9.70;99.90;;;;;;5098931;28;20517;-79
2023/12/28 05:16:39;;;;;;;4.17;1.87;;;9.70;99.90;;;;;;5095697;28;20220;-80
2023/12/28 05:19:05;;;;;;;3.80;1.60;;;9.70;99.90;;;;;;5098570;28;20183;-80
2023/12/28 05:21:30;;;;;;;7.07;1.90;;;9.80;99.90;;;;;;5096951;28;20194;-79
2023/12/28 05:23:56;;;;;;;2.70;1.60;;;9.80;99.90;;;;;;5096121;28;20254;-80
2023/12/28 05:26:23;;;;;;;2.60;1.50;;;9.80;99.90;;;;;;5098237;28;20249;-78
2023/12/28 05:28:48;;;;;;;4.97;1.80;;;9.80;99.90;;;;;;5096387;28;20189;-80
2023/12/28 05:31:14;;;;;;;5.10;2.10;;;9.80;99.90;;;;;;5078041;28;20174;-79
2023/12/28 05:33:39;;;;;;;4.70;1.80;;;9.70;99.90;;;;;;5075796;28;20202;-80
2023/12/28 05:36:06;;;;;;;3.87;1.70;;;9.80;99.90;;;;;;5077503;28;20194;-79
2023/12/28 05:38:31;;;;;;;2.23;1.50;;;9.80;99.90;;;;;;5076191;28;20261;-80
2023/12/28 05:40:57;;;;;;;5.70;1.60;;;9.80;99.90;;;;;;5078039;28;20205;-79
2023/12/28 05:43:22;;;;;;;5.83;1.80;;;9.80;99.90;;;;;;5077174;28;20539;-79
2023/12/28 05:45:48;;;;;;;3.20;1.57;;;9.80;99.90;;;;;;5074412;28;20233;-80
2023/12/28 05:48:13;;;;;;;4.30;1.50;;;9.80;99.90;;;;;;5093251;28;20622;-79
2023/12/28 05:50:39;;;;;;;4.83;1.80;;;9.80;99.90;;;;;;5093981;28;20185;-79
2023/12/28 05:53:05;;;;;;;3.33;1.67;;;9.80;99.90;;;;;;5094038;28;20255;-80
2023/12/28 05:55:30;;;;;;;5.13;1.60;;;9.80;99.90;;;;;;5093861;28;20579;-79
2023/12/28 05:57:56;;;;;;;6.20;1.53;;;9.90;99.90;;;;;;5093861;28;20652;-80
2023/12/28 06:00:22;;;;;;;3.50;1.70;;;9.80;99.90;;;;;;5094158;28;20177;-80
2023/12/28 06:02:51;;;;;;;3.97;1.70;;;9.90;99.90;;;;;;5094370;28;20673;-80
2023/12/28 06:05:17;;;;;;;5.20;1.70;;;9.90;99.90;;;;;;5096603;28;20162;-79
2023/12/28 06:07:43;;;;;;;3.93;1.93;;;9.90;99.90;;;;;;5093524;28;20603;-80
2023/12/28 06:10:09;;;;;;;2.60;1.50;;;9.90;99.90;;;;;;5094578;28;20269;-80
2023/12/28 06:12:35;;;;;;;4.77;1.97;;;9.90;99.90;;;;;;5095941;28;20202;-79
2023/12/28 06:15:01;;;;;;;3.37;1.60;;;9.90;99.90;;;;;;5096220;28;20254;-80
2023/12/28 06:17:26;;;;;;;2.20;1.70;;;9.90;99.90;;;;;;5095929;28;20620;-80
2023/12/28 06:19:52;;;;;;;3.83;1.70;;;9.90;99.90;;;;;;5096752;28;20178;-80
2023/12/28 06:22:18;;;;;;;6.80;1.60;;;9.90;99.90;;;;;;5097165;28;20689;-79
2023/12/28 06:24:43;;;;;;;4.33;1.80;;;9.90;99.90;;;;;;5097797;28;20302;-80
2023/12/28 06:27:09;;;;;;;2.80;1.50;;;9.90;99.90;;;;;;5096337;28;20243;-79
2023/12/28 06:29:34;;;;;;;4.80;1.80;;;10.00;99.90;;;;;;5096270;28;20182;-80
2023/12/28 06:32:00;;;;;;;3.07;1.60;;;9.90;99.90;;;;;;5095302;28;20827;-80
2023/12/28 06:34:26;;;;;;;3.70;1.80;;;10.00;99.90;;;;;;5095345;28;20182;-80
2023/12/28 06:36:52;;;;;;;6.03;1.87;;;10.00;99.90;;;;;;5095923;28;20231;-80
2023/12/28 06:39:17;;;;;;;5.80;1.70;;;9.90;99.90;;;;;;5097209;28;20186;-79
2023/12/28 06:41:47;;;;;;;7.17;1.83;;;9.90;99.90;;;;;;5097984;28;20198;-79
2023/12/28 06:44:14;;;;;;;5.10;1.70;;;9.90;99.90;;;;;;5097472;28;20660;-79
2023/12/28 06:46:40;;;;;;;4.07;1.80;;;9.90;99.90;;;;;;5095414;28;20562;-81
2023/12/28 06:49:05;;;;;;;5.07;1.60;;;9.90;99.90;;;;;;5099229;28;20178;-80
2023/12/28 06:51:31;;;;;;;4.10;1.47;;;9.80;99.90;;;;;;5098055;28;20198;-79
2023/12/28 06:53:57;;;;;;;6.03;2.10;;;9.80;99.90;;;;;;5098974;28;20179;-79
2023/12/28 06:56:22;;;;;;;4.73;1.63;;;9.80;99.90;;;;;;5097663;28;20204;-79
2023/12/28 06:58:48;;;;;;;5.17;1.73;;;9.80;99.90;;;;;;5100342;28;20182;-80
2023/12/28 07:01:14;;;;;;;4.70;1.83;;;9.70;99.90;;;;;;5099445;28;20178;-79
2023/12/28 07:03:40;;;;;;;5.67;2.17;;;9.80;99.90;;;;;;5100548;28;20199;-79
2023/12/28 07:06:05;;;;;;;5.47;1.70;;;9.80;99.90;;;;;;5100974;28;20178;-79
2023/12/28 07:08:31;;;;;;;3.73;1.63;;;9.80;99.90;;;;;;5099597;28;20189;-80
2023/12/28 07:11:00;;;;;;;8.03;2.00;;;9.80;99.90;;;;;;5099879;28;20269;-79
2023/12/28 07:13:26;;;;;;;6.70;1.97;;;9.90;99.90;;;;;;5098818;28;20244;-77
2023/12/28 07:15:51;;;;;;;6.07;1.83;;;9.90;99.90;;;;;;5096674;28;20210;-78
2023/12/28 07:18:17;;;;;;;6.33;1.80;;;9.90;99.90;;;;;;5100937;28;20196;-79
2023/12/28 07:20:43;;;;;;;5.53;1.47;;;9.90;99.90;;;;;;5100894;28;20177;-77
2023/12/28 07:23:11;;;;;;;4.00;1.73;;;9.90;99.90;;;;;;5097998;28;20189;-78
2023/12/28 07:25:37;;;;;;;7.20;1.77;;;9.90;99.90;;;;;;5098951;28;20166;-77
2023/12/28 07:28:02;;;;;;;8.90;1.97;;;9.90;99.90;;;;;;5097644;28;20174;-77
2023/12/28 07:30:29;;;;;;;8.87;1.83;;;9.90;99.90;;;;;;5097534;28;20182;-77
2023/12/28 07:32:54;;;;;;;9.80;2.47;;;10.00;99.90;;;;;;5096255;28;20210;-77
2023/12/28 07:35:20;;;;;;;6.47;1.90;;;10.00;99.90;;;;;;5097730;28;20312;-77
2023/12/28 07:37:45;;;;;;;6.30;2.23;;;9.90;99.90;;;;;;5097215;28;20166;-77
2023/12/28 07:40:12;;;;;;;8.77;1.93;;;10.00;99.90;;;;;;5098569;28;20598;-78
2023/12/28 07:42:38;;;;;;;7.10;1.80;;;9.90;99.90;;;;;;5098717;28;20228;-78
2023/12/28 07:45:04;;;;;;;6.53;1.77;;;10.00;99.90;;;;;;5097195;28;20170;-78
2023/12/28 07:47:30;;;;;;;8.80;1.90;;;10.00;99.90;;;;;;5098421;28;20180;-78
2023/12/28 07:49:55;;;;;;;5.30;1.67;;;10.10;99.90;;;;;;5098616;28;20634;-77
2023/12/28 07:52:21;;;;;;;11.03;1.60;;;10.10;99.90;;;;;;5098045;28;20212;-78
2023/12/28 07:54:47;;;;;;;3.67;1.77;;;10.10;99.90;;;;;;5098417;28;20205;-78
2023/12/28 07:57:12;;;;;;;6.50;1.73;;;10.10;99.90;;;;;;5098403;28;20251;-78
2023/12/28 07:59:38;;;;;;;8.87;2.03;;;10.10;99.90;;;;;;5099511;28;20223;-78
2023/12/28 08:02:03;;;;;;;5.17;2.20;;;10.10;99.90;;;;;;5100421;28;20253;-78
2023/12/28 08:04:29;;;;;;;7.37;1.80;;;10.10;99.90;;;;;;5098113;28;20181;-77
2023/12/28 08:06:54;;;;;;;8.47;1.90;;;10.00;99.90;;;;;;5099462;28;20174;-78
2023/12/28 08:09:20;;;;;;;4.60;1.77;;;10.00;99.90;;;;;;5098585;28;20189;-79
2023/12/28 08:11:45;;;;;;;6.23;1.70;;;10.00;99.90;;;;;;5098953;28;20673;-78
2023/12/28 08:14:11;;;;;;;3.73;1.70;;;10.10;99.90;;;;;;5099667;28;20528;-78
2023/12/28 08:16:36;;;;;;;4.17;1.63;;;10.10;99.90;;;;;;5098160;28;20695;-78
2023/12/28 08:19:02;;;;;;;8.07;1.60;;;10.10;99.90;;;;;;5098977;28;20178;-78
2023/12/28 08:21:28;;;;;;;11.53;2.47;;;10.10;99.90;;;;;;5097649;28;20244;-77
2023/12/28 08:23:53;;;;;;;7.57;1.97;;;10.10;99.90;;;;;;5095315;28;20190;-77
2023/12/28 08:26:19;;;;;;;8.90;2.00;;;10.10;99.90;;;;;;5095794;28;20181;-77
2023/12/28 08:28:45;;;;;;;6.77;1.90;;;10.10;99.90;;;;;;5094767;28;20181;-78
2023/12/28 08:31:10;;;;;;;9.27;2.10;;;10.10;99.90;;;;;;5095394;28;20178;-78
2023/12/28 08:33:39;;;;;;;5.63;1.67;;;10.00;99.90;;;;;;5097007;28;20201;-77
2023/12/28 08:36:05;;;;;;;7.43;2.07;;;10.10;99.90;;;;;;5096880;28;20190;-77
2023/12/28 08:38:31;;;;;;;7.43;1.70;;;10.10;99.90;;;;;;5096603;28;20174;-79
2023/12/28 08:40:56;;;;;;;7.77;2.00;;;10.10;99.90;;;;;;5097029;28;20182;-78
2023/12/28 08:43:22;;;;;;;11.07;2.37;;;10.10;99.90;;;;;;5097393;28;20197;-78
2023/12/28 08:45:48;;;;;;;7.80;1.57;;;10.10;99.90;;;;;;5097256;28;20200;-78
2023/12/28 08:48:13;;;;;;;5.77;1.70;;;10.10;99.90;;;;;;5096504;28;20186;-78
2023/12/28 08:50:38;;;;;;;6.43;1.60;;;10.10;99.90;;;;;;5095867;28;20188;-78
2023/12/28 08:53:04;;;;;;;9.80;2.13;;;10.10;99.90;;;;;;5096169;28;20292;-78
2023/12/28 08:55:30;;;;;;;6.83;2.03;;;10.10;99.90;;;;;;5097598;28;20208;-79
2023/12/28 08:57:55;;;;;;;8.20;2.20;;;10.10;99.90;;;;;;5098927;28;20181;-78
2023/12/28 09:00:21;;;;;;;10.63;2.70;;;10.20;99.90;;;;;;5097488;28;20175;-79
2023/12/28 09:02:46;;;;;;;7.37;2.30;;;10.20;99.90;;;;;;5098306;28;20194;-78
2023/12/28 09:05:12;;;;;;;9.73;2.20;;;10.20;99.90;;;;;;5100342;28;20194;-79
2023/12/28 09:07:42;;;;;;;8.00;2.07;;;10.20;99.90;;;;;;5099690;28;20505;-78
2023/12/28 09:10:12;;;;;;;7.83;2.23;;;10.20;99.90;;;;;;5099111;28;20165;-79
2023/12/28 09:12:38;;;;;;;7.60;2.00;;;10.20;99.90;;;;;;5098826;28;20201;-78
2023/12/28 09:15:07;;;;;;;11.77;2.20;;;10.20;99.90;;;;;;5097644;28;20553;-78
2023/12/28 09:17:34;;;;;;;7.43;2.07;;;10.30;99.90;;;;;;5099648;28;20502;-79
2023/12/28 09:20:01;;;;;;;14.07;2.20;;;10.30;99.90;;;;;;5098358;28;20205;-78
2023/12/28 09:22:27;;;;;;;7.27;1.60;;;10.30;99.90;;;;;;5098769;28;20205;-78
2023/12/28 09:24:52;;;;;;;8.87;2.20;;;10.30;99.90;;;;;;5100546;28;20554;-78
2023/12/28 09:27:18;;;;;;;9.73;1.83;;;10.30;99.90;;;;;;5098316;28;20273;-78
2023/12/28 09:29:43;;;;;;;12.23;2.63;;;10.40;99.90;;;;;;5099069;28;20174;-78
2023/12/28 09:32:09;;;;;;;12.70;2.33;;;10.40;99.90;;;;;;5099388;28;20210;-78
2023/12/28 09:34:34;;;;;;;11.70;2.37;;;10.40;99.90;;;;;;5099339;28;20171;-77
2023/12/28 09:37:00;;;;;;;9.90;2.10;;;10.40;99.90;;;;;;5098698;28;20596;-78
2023/12/28 09:39:26;;;;;;;8.20;2.00;;;10.50;99.90;;;;;;5098947;28;20197;-79
2023/12/28 09:42:00;;;;;;;11.37;2.17;;;10.50;99.90;;;;;;5100978;28;20243;-78
2023/12/28 09:44:28;;;;;;;8.63;2.20;;;10.50;99.90;;;;;;5101195;28;20158;-78
2023/12/28 09:46:55;;;;;;;8.07;2.00;;;10.40;99.90;;;;;;5100258;28;20527;-78
2023/12/28 09:49:21;;;;;;;10.53;1.90;;;10.50;99.90;;;;;;5097884;28;20173;-78
2023/12/28 09:51:47;;;;;;;9.77;2.30;;;10.50;99.90;;;;;;5094983;28;20198;-78
2023/12/28 09:54:13;;;;;;;11.63;2.27;;;10.50;99.90;;;;;;5095506;28;20273;-78
2023/12/28 09:56:40;;;;;;;9.03;2.20;;;10.50;99.90;;;;;;5095362;28;20225;-79
2023/12/28 09:59:07;;;;;;;11.87;2.07;;;10.50;99.90;;;;;;5095144;28;20249;-78
2023/12/28 10:01:34;;;;;;;9.43;2.43;;;10.60;99.90;;;;;;5097221;28;20516;-78
2023/12/28 10:04:00;;;;;;;10.23;2.10;;;10.60;99.90;;;;;;5096960;28;20184;-78
2023/12/28 10:06:26;;;;;;;10.40;2.73;;;10.60;99.90;;;;;;5095224;28;20174;-78
2023/12/28 10:08:51;;;;;;;8.57;2.27;;;10.60;99.90;;;;;;5097331;28;20267;-78
2023/12/28 10:11:18;;;;;;;7.07;1.93;;;10.70;99.90;;;;;;5098892;28;20634;-78
2023/12/28 10:13:44;;;;;;;10.47;2.40;;;10.70;99.90;;;;;;5100083;28;20187;-78
2023/12/28 10:16:11;;;;;;;14.27;2.50;;;10.80;99.90;;;;;;5100851;28;20227;-78
2023/12/28 10:18:44;;;;;;;12.67;2.20;;;10.80;99.90;;;;;;5097472;28;20609;-78
2023/12/28 10:21:09;;;;;;;9.73;2.60;;;10.90;99.90;;;;;;5097029;28;20166;-78
2023/12/28 10:23:35;;;;;;;14.00;2.47;;;10.90;99.90;;;;;;5099301;28;20215;-78
2023/12/28 10:26:01;;;;;;;8.20;2.50;;;10.90;99.90;;;;;;5098516;28;20245;-78
2023/12/28 10:28:27;;;;;;;15.93;2.63;;;10.90;99.90;;;;;;5095700;28;20174;-78
2023/12/28 10:30:58;;;;;;;11.37;2.00;;;11.00;99.90;;;;;;5097053;28;20177;-78
2023/12/28 10:33:24;;;;;;;8.73;2.30;;;11.00;99.90;;;;;;5101351;28;20228;-78
2023/12/28 10:35:51;;;;;;;7.47;1.90;;;10.90;99.90;;;;;;5100957;28;20209;-78
2023/12/28 10:38:17;;;;;;;9.57;2.07;;;10.90;99.90;;;;;;5103203;28;20177;-78
2023/12/28 10:40:44;;;;;;;8.27;2.27;;;10.90;99.90;;;;;;5102356;28;20198;-78
2023/12/28 10:43:14;;;;;;;8.53;2.17;;;10.90;99.90;;;;;;5101653;28;20692;-80
2023/12/28 10:45:40;;;;;;;10.90;2.63;;;10.90;99.90;;;;;;5098705;28;20265;-78
2023/12/28 10:48:08;;;;;;;9.93;2.10;;;10.90;99.90;;;;;;5098893;28;20197;-77
2023/12/28 10:50:49;;;;;;;10.30;2.00;;;10.90;99.90;;;;;;5098550;28;20178;-78
2023/12/28 10:53:38;;;;;;;7.73;1.87;;;11.00;99.90;;;;;;5099476;28;20194;-78
2023/12/28 10:56:23;;;;;;;7.53;2.00;;;11.00;99.90;;;;;;5098520;28;20208;-78
2023/12/28 10:58:50;;;;;;;10.60;2.50;;;11.00;99.90;;;;;;5105036;28;20174;-78
2023/12/28 11:01:31;;;;;;;6.40;1.80;;;11.10;99.90;;;;;;5105419;28;20177;-78
2023/12/28 11:04:17;;;;;;;10.53;2.00;;;11.00;99.90;;;;;;5106007;28;20190;-78
2023/12/28 11:06:44;;;;;;;8.33;2.23;;;11.00;99.90;;;;;;5105945;28;20194;-78
2023/12/28 11:09:11;;;;;;;9.53;2.20;;;11.10;99.90;;;;;;5107620;28;20234;-78
2023/12/28 11:11:38;;;;;;;12.77;2.17;;;11.00;99.90;;;;;;5108764;28;20238;-78
2023/12/28 11:14:04;;;;;;;8.93;2.10;;;11.00;99.90;;;;;;5111454;28;20174;-78
2023/12/28 11:16:32;;;;;;;6.33;1.93;;;11.10;99.90;;;;;;5110009;28;20209;-78
2023/12/28 11:18:58;;;;;;;9.23;2.23;;;11.10;99.90;;;;;;5101050;28;20201;-78
2023/12/28 11:21:24;;;;;;;7.63;2.03;;;11.10;99.90;;;;;;5097392;28;20524;-77
2023/12/28 11:23:50;;;;;;;7.77;2.13;;;11.10;99.90;;;;;;5097553;28;20178;-78
2023/12/28 11:26:21;;;;;;;9.63;2.27;;;11.10;99.90;;;;;;5098376;28;20179;-77
2023/12/28 11:28:47;;;;;;;8.53;1.80;;;11.20;99.90;;;;;;5095845;28;20181;-77
2023/12/28 11:31:17;;;;;;;14.03;2.73;;;11.20;99.90;;;;;;5095849;28;20178;-77
2023/12/28 11:33:53;;;;;;;10.27;2.40;;;11.20;99.90;;;;;;5095388;28;20645;-77
2023/12/28 11:36:26;;;;;;;11.90;2.03;;;11.30;99.90;;;;;;5100299;28;20194;-78
2023/12/28 11:39:00;;;;;;;14.87;2.67;;;11.20;99.90;;;;;;5100045;28;20178;-76
2023/12/28 11:41:26;;;;;;;6.60;2.07;;;11.30;99.90;;;;;;5095421;28;20207;-76
2023/12/28 11:43:53;;;;;;;10.53;2.20;;;11.20;99.90;;;;;;5093687;28;20174;-76
2023/12/28 11:46:20;;;;;;;7.80;2.50;;;11.30;99.90;;;;;;5093802;28;20188;-76
2023/12/28 11:48:45;;;;;;;6.83;1.73;;;11.20;99.90;;;;;;5093793;28;20684;-75
2023/12/28 11:51:11;;;;;;;10.37;2.20;;;11.30;99.90;;;;;;5095090;28;20198;-76
2023/12/28 11:53:38;;;;;;;7.53;1.80;;;11.30;99.90;;;;;;5095442;28;20650;-76
2023/12/28 11:56:05;;;;;;;11.10;2.43;;;11.30;99.90;;;;;;5094514;28;20210;-77
2023/12/28 11:58:32;;;;;;;10.37;2.97;;;11.30;99.90;;;;;;5097497;28;20216;-77
2023/12/28 12:00:58;;;;;;;10.07;1.90;;;11.30;99.90;;;;;;5098494;28;20261;-78
2023/12/28 12:03:25;;;;;;;6.80;2.10;;;11.30;99.90;;;;;;5096205;28;20277;-77
2023/12/28 12:05:50;;;;;;;11.60;2.63;;;11.40;99.90;;;;;;5098122;28;20253;-78
2023/12/28 12:08:16;;;;;;;8.23;2.37;;;11.30;99.90;;;;;;5096499;28;20246;-77
2023/12/28 12:10:41;;;;;;;9.70;2.10;;;11.40;99.90;;;;;;5098586;28;20251;-77
2023/12/28 12:13:08;;;;;;;8.30;2.77;;;11.40;99.90;;;;;;5097424;28;20609;-77
2023/12/28 12:15:34;;;;;;;10.23;2.03;;;11.40;99.90;;;;;;5098044;28;20626;-77
2023/12/28 12:18:01;;;;;;;11.80;2.47;;;11.40;99.90;;;;;;5097901;28;20174;-77
2023/12/28 12:20:29;;;;;;;11.87;3.10;;;11.40;99.90;;;;;;5097361;28;20181;-77
2023/12/28 12:22:57;;;;;;;8.70;2.20;;;11.40;99.90;;;;;;5098530;28;20194;-79
2023/12/28 12:25:23;;;;;;;6.90;2.00;;;11.40;99.90;;;;;;5104664;28;20198;-79
2023/12/28 12:27:49;;;;;;;9.57;2.23;;;11.40;99.90;;;;;;5100953;28;20182;-77
2023/12/28 12:30:14;;;;;;;11.80;2.20;;;11.40;99.90;;;;;;5098429;28;20207;-78
2023/12/28 12:32:42;;;;;;;10.33;2.30;;;11.40;99.90;;;;;;5095457;28;20198;-77
2023/12/28 12:35:11;;;;;;;13.07;1.80;;;11.40;99.90;;;;;;5096109;28;20266;-77
2023/12/28 12:37:37;;;;;;;14.23;2.40;;;11.40;99.90;;;;;;5098062;28;20205;-79
2023/12/28 12:40:05;;;;;;;13.47;3.13;;;11.40;99.90;;;;;;5096438;28;20253;-77
2023/12/28 12:42:31;;;;;;;9.37;2.20;;;11.40;99.90;;;;;;5095871;28;20201;-77
2023/12/28 12:44:57;;;;;;;12.20;2.50;;;11.50;99.90;;;;;;5093690;28;20653;-77